Terminal Aerodrome Forecast
Issued by NWS Duluth, MN

Home | Current Version | Previous Version | Text Only | Print | Product List | Glossary On
Versions: 1 2 3 4 5 6 7 8 9 10 11 12 13 14 15 16 17 18 19 20 21 22 23 24
000
FTUS43 KDLH 220500
TAFINL
TAF
KINL 220537Z 2206/2306 11006KT P6SM BKN015 OVC040
     FM220800 VRB03KT 3SM BR OVC009
      TEMPO 2209/2212 3/4SM BR OVC005
     FM221500 VRB03KT 6SM BR OVC008
     FM221700 33003KT P6SM BKN015
     FM222000 35004KT P6SM BKN040
     FM230500 VRB02KT P6SM BKN025=

USA.gov is the U.S. government's official web portal to all federal, state and local government web resources and services.